Time;durP1;ratioP1;P1;durP2;ratioP2;P2;SDS_P1;SDS_P2;PMS_P1;PMS_P2;Temp;Humidity;BMP_temperature;BMP_pressure;BME280_temperature;BME280_humidity;BME280_pressure;Samples;Min_cycle;Max_cycle;Signal;HPM_P1;HPM_P2
2021/03/01 00:00:12;;;;;;;10.23;6.97;;;;;;;5.70;44.88;96231.91;5088496;28;20571;-72
2021/03/01 00:02:39;;;;;;;11.07;7.03;;;;;;;5.73;44.79;96220.31;5091352;28;20209;-69
2021/03/01 00:05:08;;;;;;;9.52;6.43;;;;;;;5.67;44.91;96231.47;5089773;28;20253;-73
2021/03/01 00:07:35;;;;;;;10.02;7.03;;;;;;;5.55;45.15;96222.59;5090879;28;20290;-69
2021/03/01 00:10:04;;;;;;;10.18;7.10;;;;;;;5.51;45.36;96219.56;5090000;28;20204;-73
2021/03/01 00:12:31;;;;;;;11.02;6.82;;;;;;;5.40;45.53;96227.91;5090784;28;20199;-71
2021/03/01 00:14:57;;;;;;;10.73;7.03;;;;;;;5.28;46.47;96229.44;5090115;28;20274;-70
2021/03/01 00:17:24;;;;;;;10.20;6.97;;;;;;;5.54;45.55;96221.00;5090574;28;20610;-69
2021/03/01 00:19:50;;;;;;;11.00;7.35;;;;;;;5.24;46.23;96219.63;5090164;28;20200;-68
2021/03/01 00:22:17;;;;;;;10.68;6.95;;;;;;;5.31;45.97;96221.25;5101557;28;20747;-71
2021/03/01 00:24:44;;;;;;;9.88;6.95;;;;;;;5.57;45.49;96220.59;5089972;28;20205;-72
2021/03/01 00:27:10;;;;;;;10.13;7.00;;;;;;;5.42;45.52;96212.16;5098879;28;20210;-72
2021/03/01 00:29:37;;;;;;;12.07;7.38;;;;;;;5.42;45.80;96206.94;5110352;28;20222;-72
2021/03/01 00:32:04;;;;;;;8.77;6.53;;;;;;;5.34;45.82;96200.09;5102439;28;20214;-72
2021/03/01 00:34:30;;;;;;;11.20;7.05;;;;;;;5.23;45.85;96181.63;5099298;28;20214;-71
2021/03/01 00:36:57;;;;;;;12.60;7.63;;;;;;;5.35;45.97;96200.88;5102614;28;20259;-70
2021/03/01 00:39:24;;;;;;;10.52;6.70;;;;;;;5.31;45.82;96210.06;5090135;28;20206;-69
2021/03/01 00:41:50;;;;;;;11.07;7.38;;;;;;;5.56;45.56;96204.22;5101505;28;20559;-69
2021/03/01 00:44:17;;;;;;;11.43;7.03;;;;;;;5.48;45.56;96206.16;5089806;28;20199;-68
2021/03/01 00:46:44;;;;;;;11.50;7.57;;;;;;;5.13;45.86;96203.56;5100930;28;20279;-69
2021/03/01 00:49:11;;;;;;;12.40;6.80;;;;;;;5.38;45.45;96210.91;5089906;28;20230;-69
2021/03/01 00:51:37;;;;;;;9.57;7.28;;;;;;;5.29;45.75;96201.66;5098310;28;20553;-68
2021/03/01 00:54:05;;;;;;;13.18;7.65;;;;;;;5.55;45.07;96194.00;5096035;28;20622;-68
2021/03/01 00:56:43;;;;;;;14.43;7.05;;;;;;;5.52;44.83;96190.00;5099064;28;20202;-71
2021/03/01 00:59:09;;;;;;;11.02;8.05;;;;;;;5.48;44.98;96185.38;5090113;28;20203;-70
2021/03/01 01:01:35;;;;;;;10.63;7.00;;;;;;;5.15;45.44;96175.59;5093898;28;20211;-72
2021/03/01 01:04:04;;;;;;;12.00;7.22;;;;;;;5.39;44.71;96176.13;5106773;28;20687;-71
2021/03/01 01:06:32;;;;;;;9.43;6.82;;;;;;;5.13;45.00;96156.78;5102186;28;20201;-69
2021/03/01 01:08:58;;;;;;;9.93;7.20;;;;;;;5.26;45.03;96181.22;5092204;28;20632;-69
2021/03/01 01:11:25;;;;;;;13.32;6.78;;;;;;;5.27;45.53;96183.66;5097170;28;20284;-70
2021/03/01 01:13:51;;;;;;;10.77;7.55;;;;;;;5.27;45.33;96182.84;5093254;28;20205;-73
2021/03/01 01:16:18;;;;;;;12.98;7.60;;;;;;;5.26;45.28;96165.66;5096359;28;20586;-70
2021/03/01 01:18:44;;;;;;;11.32;7.07;;;;;;;5.22;45.41;96169.66;5095255;28;20557;-69
2021/03/01 01:21:11;;;;;;;10.27;7.22;;;;;;;5.21;45.10;96173.22;5095102;28;20191;-71
2021/03/01 01:23:37;;;;;;;12.25;7.05;;;;;;;5.00;45.93;96172.28;5094830;28;20210;-70
2021/03/01 01:26:03;;;;;;;12.15;7.40;;;;;;;4.88;46.62;96170.41;5094036;28;20690;-72
2021/03/01 01:28:30;;;;;;;9.90;7.07;;;;;;;5.10;45.25;96172.78;5095625;28;20222;-71
2021/03/01 01:30:56;;;;;;;12.32;7.53;;;;;;;5.30;45.26;96152.09;5093260;28;20191;-72
2021/03/01 01:33:22;;;;;;;11.18;6.72;;;;;;;5.07;46.27;96160.13;5097073;28;20191;-67
2021/03/01 01:35:49;;;;;;;11.55;7.35;;;;;;;5.21;45.49;96153.25;5091675;28;20192;-66
2021/03/01 01:38:15;;;;;;;11.80;8.00;;;;;;;5.18;44.93;96159.59;5098109;28;20210;-68
2021/03/01 01:40:41;;;;;;;10.07;6.50;;;;;;;5.21;44.90;96163.63;5091607;28;20196;-71
2021/03/01 01:43:08;;;;;;;13.57;7.65;;;;;;;5.14;44.33;96153.22;5098424;28;20202;-69
2021/03/01 01:45:34;;;;;;;11.75;7.18;;;;;;;5.05;45.05;96162.13;5090868;28;20191;-71
2021/03/01 01:48:01;;;;;;;11.55;7.53;;;;;;;4.96;45.29;96159.88;5098625;28;20207;-69
2021/03/01 01:50:29;;;;;;;11.02;7.40;;;;;;;4.97;45.54;96157.09;5091464;28;20183;-69
2021/03/01 01:52:56;;;;;;;9.95;6.53;;;;;;;5.11;44.64;96158.78;5098490;28;20202;-68
2021/03/01 01:55:25;;;;;;;10.27;6.53;;;;;;;5.08;45.04;96148.78;5091206;28;20207;-73
2021/03/01 01:57:51;;;;;;;11.40;6.82;;;;;;;4.83;45.58;96134.63;5098187;28;20230;-68
2021/03/01 02:03:29;;;;;;;13.02;7.07;;;;;;;4.89;45.92;96157.22;5098364;28;20210;-69
2021/03/01 02:06:18;;;;;;;16.15;9.05;;;;;;;4.67;46.31;96160.06;5095895;28;20219;-72
2021/03/01 02:08:50;;;;;;;14.85;8.55;;;;;;;4.18;47.39;96165.19;5097381;28;20227;-71
2021/03/01 02:11:29;;;;;;;15.65;9.25;;;;;;;4.23;48.04;96168.06;5099453;28;20636;-72
2021/03/01 02:14:26;;;;;;;19.35;10.70;;;;;;;4.06;48.26;96156.31;5096009;28;20199;-72
2021/03/01 02:16:52;;;;;;;20.58;12.65;;;;;;;3.97;48.99;96160.00;5098126;28;20597;-70
2021/03/01 02:19:20;;;;;;;22.20;13.15;;;;;;;3.78;49.25;96165.78;5091499;28;20195;-70
2021/03/01 02:21:47;;;;;;;24.75;14.43;;;;;;;3.72;49.84;96159.53;5103913;28;20194;-71
2021/03/01 02:24:17;;;;;;;25.13;13.45;;;;;;;3.68;49.78;96154.91;5101062;28;20211;-68
2021/03/01 02:26:47;;;;;;;24.30;14.23;;;;;;;3.93;49.34;96163.94;5103331;28;20289;-73
2021/03/01 02:29:17;;;;;;;23.85;13.95;;;;;;;3.91;49.13;96158.94;5092287;28;20219;-70
2021/03/01 02:31:45;;;;;;;21.40;13.27;;;;;;;3.87;49.76;96152.53;5103114;28;20576;-68
2021/03/01 02:34:16;;;;;;;21.92;12.95;;;;;;;3.88;49.75;96153.34;5093022;28;20198;-69
2021/03/01 02:36:50;;;;;;;19.20;10.88;;;;;;;3.83;49.31;96150.50;5102839;28;20198;-67
2021/03/01 02:39:21;;;;;;;19.48;11.32;;;;;;;4.01;48.57;96148.28;5092629;28;20197;-71
2021/03/01 02:41:49;;;;;;;15.85;9.93;;;;;;;4.01;48.92;96148.28;5103256;28;20205;-69
2021/03/01 02:44:18;;;;;;;17.17;9.63;;;;;;;4.12;48.40;96146.00;5092601;28;20202;-69
2021/03/01 02:46:46;;;;;;;15.10;8.73;;;;;;;4.15;47.97;96139.63;5103162;28;20857;-69
2021/03/01 02:49:15;;;;;;;11.98;7.80;;;;;;;4.23;47.76;96139.53;5092062;28;20243;-73
2021/03/01 02:51:44;;;;;;;11.27;7.72;;;;;;;4.21;47.35;96138.91;5102105;28;20669;-72
2021/03/01 02:54:13;;;;;;;11.25;7.45;;;;;;;4.03;47.89;96143.72;5092554;28;20214;-66
2021/03/01 02:56:41;;;;;;;13.38;8.13;;;;;;;4.20;47.27;96126.91;5103881;28;20194;-67
2021/03/01 02:59:10;;;;;;;11.68;7.20;;;;;;;4.15;47.58;96134.44;5094153;28;20209;-70
2021/03/01 03:01:38;;;;;;;9.20;7.00;;;;;;;4.33;46.98;96137.41;5102905;28;20194;-68
2021/03/01 03:04:06;;;;;;;12.63;7.68;;;;;;;4.11;47.73;96136.63;5094543;28;20227;-71
2021/03/01 03:06:36;;;;;;;10.85;7.43;;;;;;;4.29;46.98;96130.97;5101694;28;20289;-68
2021/03/01 03:09:07;;;;;;;12.80;7.40;;;;;;;4.20;47.41;96136.50;5093736;27;20235;-69
2021/03/01 03:11:34;;;;;;;11.90;8.05;;;;;;;3.94;48.25;96132.66;5100660;28;20243;-71
2021/03/01 03:14:02;;;;;;;13.45;8.02;;;;;;;4.06;47.99;96130.38;5094473;28;20203;-70
2021/03/01 03:16:29;;;;;;;11.50;7.88;;;;;;;4.10;48.22;96126.44;5099466;28;20203;-71
2021/03/01 03:18:57;;;;;;;13.18;8.38;;;;;;;4.19;48.21;96135.69;5094758;28;20250;-69
2021/03/01 03:21:24;;;;;;;10.82;7.60;;;;;;;3.90;48.60;96121.06;5098789;28;20691;-69
2021/03/01 03:23:53;;;;;;;14.98;7.72;;;;;;;4.01;48.79;96127.53;5095406;28;20191;-69
2021/03/01 03:26:19;;;;;;;14.63;8.07;;;;;;;4.30;47.93;96122.22;5098121;28;20199;-68
2021/03/01 03:28:46;;;;;;;11.15;7.72;;;;;;;4.37;47.90;96120.47;5095404;28;20223;-70
2021/03/01 03:31:12;;;;;;;13.05;8.30;;;;;;;4.10;48.11;96134.22;5096782;28;20202;-71
2021/03/01 03:33:40;;;;;;;13.95;8.40;;;;;;;4.13;48.29;96126.88;5096724;28;20684;-71
2021/03/01 03:36:08;;;;;;;11.60;7.85;;;;;;;4.07;48.64;96121.59;5095924;28;20186;-72
2021/03/01 03:38:39;;;;;;;14.40;7.82;;;;;;;4.14;48.48;96138.03;5097597;28;20202;-71
2021/03/01 03:41:08;;;;;;;15.68;8.60;;;;;;;4.07;48.65;96129.38;5090131;28;20203;-70
2021/03/01 03:43:35;;;;;;;12.65;8.45;;;;;;;4.00;48.39;96125.91;5091639;28;20203;-70
2021/03/01 03:46:02;;;;;;;12.63;8.23;;;;;;;3.87;48.81;96136.16;5090051;28;20183;-70
2021/03/01 03:48:30;;;;;;;11.85;8.18;;;;;;;4.10;48.37;96132.44;5091399;28;20212;-67
2021/03/01 03:50:59;;;;;;;13.90;8.57;;;;;;;4.04;48.87;96137.53;5089924;28;20191;-71
2021/03/01 03:53:28;;;;;;;15.65;8.48;;;;;;;4.23;48.34;96125.75;5095995;28;20641;-67
2021/03/01 03:55:58;;;;;;;12.55;8.30;;;;;;;4.10;48.48;96127.25;5101102;28;20191;-69
2021/03/01 03:58:30;;;;;;;14.43;8.25;;;;;;;3.85;49.29;96127.78;5091121;28;20209;-68
2021/03/01 04:01:00;;;;;;;12.65;8.15;;;;;;;3.89;49.43;96123.81;5089726;28;20282;-69
2021/03/01 04:03:29;;;;;;;13.18;8.25;;;;;;;4.06;49.07;96133.78;5091451;28;20298;-68
2021/03/01 04:05:56;;;;;;;17.20;8.70;;;;;;;4.20;48.23;96132.09;5093235;28;20230;-69
2021/03/01 04:08:26;;;;;;;16.50;8.80;;;;;;;4.05;48.99;96134.75;5098331;28;20226;-69
2021/03/01 04:10:54;;;;;;;12.55;8.45;;;;;;;3.87;49.16;96126.59;5093626;28;20191;-66
2021/03/01 04:13:25;;;;;;;14.77;9.30;;;;;;;4.09;48.80;96115.25;5098367;28;20207;-67
2021/03/01 04:15:51;;;;;;;18.83;8.88;;;;;;;3.95;48.65;96110.13;5093019;28;20191;-70
2021/03/01 04:18:32;;;;;;;14.80;8.90;;;;;;;4.12;49.11;96130.44;5098654;28;20211;-71
2021/03/01 04:21:02;;;;;;;13.98;9.45;;;;;;;4.01;49.00;96127.53;5094085;28;20672;-69
2021/03/01 04:23:30;;;;;;;16.27;9.45;;;;;;;3.95;49.21;96133.47;5096928;28;20203;-67
2021/03/01 04:25:58;;;;;;;15.05;9.65;;;;;;;4.10;49.08;96137.63;5093464;28;20681;-71
2021/03/01 04:28:25;;;;;;;14.32;9.32;;;;;;;4.06;49.28;96138.97;5096762;28;20319;-71
2021/03/01 04:30:51;;;;;;;17.52;10.23;;;;;;;3.99;49.38;96139.88;5092754;28;20610;-68
2021/03/01 04:33:19;;;;;;;14.88;10.15;;;;;;;3.93;49.88;96138.03;5103846;28;20268;-68
2021/03/01 04:35:47;;;;;;;17.70;9.85;;;;;;;3.76;50.31;96144.44;5092709;28;20608;-69
2021/03/01 04:38:14;;;;;;;18.15;10.27;;;;;;;3.90;49.90;96147.00;5101916;28;20201;-70
2021/03/01 04:40:41;;;;;;;17.15;9.73;;;;;;;3.98;49.58;96139.06;5103883;28;20198;-70
2021/03/01 04:43:13;;;;;;;14.05;9.70;;;;;;;3.89;49.81;96113.44;5101091;28;20221;-71
2021/03/01 04:45:43;;;;;;;15.70;9.52;;;;;;;4.03;49.74;96133.34;5101802;28;20660;-69
2021/03/01 04:48:12;;;;;;;16.15;9.55;;;;;;;4.08;49.26;96137.00;5097265;28;20244;-69
2021/03/01 04:50:39;;;;;;;18.27;10.07;;;;;;;4.05;49.46;96134.75;5097149;28;20191;-69
2021/03/01 04:53:06;;;;;;;19.75;10.35;;;;;;;3.99;49.82;96135.50;5098043;28;20292;-70
2021/03/01 04:55:33;;;;;;;15.85;10.60;;;;;;;3.79;50.26;96136.28;5091084;28;20205;-72
2021/03/01 04:58:00;;;;;;;20.85;10.75;;;;;;;3.90;50.09;96141.00;5093757;28;20963;-71
2021/03/01 05:00:28;;;;;;;15.50;10.45;;;;;;;3.59;51.37;96143.03;5090762;28;20291;-74
2021/03/01 05:02:55;;;;;;;22.77;12.32;;;;;;;3.78;50.96;96139.84;5110945;28;20672;-71
2021/03/01 05:05:22;;;;;;;25.05;13.38;;;;;;;3.82;50.60;96133.31;5104148;28;20223;-71
2021/03/01 05:07:48;;;;;;;24.13;13.45;;;;;;;3.58;51.48;96137.03;5089898;28;20214;-69
2021/03/01 05:10:15;;;;;;;19.88;12.25;;;;;;;3.79;51.39;96144.88;5090551;28;20285;-70
2021/03/01 05:12:41;;;;;;;18.35;11.65;;;;;;;3.75;51.33;96148.00;5090082;28;20286;-71
2021/03/01 05:15:08;;;;;;;18.60;11.73;;;;;;;3.92;51.21;96149.38;5090047;28;20199;-72
2021/03/01 05:17:37;;;;;;;18.45;11.13;;;;;;;3.87;51.22;96152.53;5101177;28;20202;-70
2021/03/01 05:20:04;;;;;;;21.15;12.73;;;;;;;3.91;50.81;96158.94;5110130;28;20207;-69
2021/03/01 05:22:31;;;;;;;22.50;12.07;;;;;;;3.75;51.59;96153.19;5098818;28;20301;-71
2021/03/01 05:24:57;;;;;;;22.60;12.57;;;;;;;3.63;52.38;96152.06;5098907;28;20198;-71
2021/03/01 05:27:23;;;;;;;20.80;12.57;;;;;;;3.86;51.95;96171.66;5103795;28;20196;-73
2021/03/01 05:29:50;;;;;;;22.52;12.75;;;;;;;3.87;51.63;96162.06;5105692;28;20212;-71
2021/03/01 05:32:16;;;;;;;24.88;13.48;;;;;;;3.89;51.48;96166.09;5100214;28;20191;-71
2021/03/01 05:34:44;;;;;;;34.47;17.85;;;;;;;3.47;52.75;96173.78;5102492;28;20204;-71
2021/03/01 05:37:10;;;;;;;43.95;20.02;;;;;;;3.39;52.76;96179.06;5088269;28;20207;-70
2021/03/01 05:39:37;;;;;;;43.30;19.85;;;;;;;3.19;53.53;96166.84;5093339;28;20198;-71
2021/03/01 05:42:04;;;;;;;52.97;22.15;;;;;;;3.28;53.19;96176.94;5093197;28;20195;-68
2021/03/01 05:44:32;;;;;;;49.03;21.58;;;;;;;3.32;52.96;96141.09;5093806;28;20691;-70
2021/03/01 05:47:00;;;;;;;52.33;22.00;;;;;;;3.53;52.56;96154.13;5093926;28;20671;-71
2021/03/01 05:49:27;;;;;;;51.67;22.20;;;;;;;3.70;52.32;96171.88;5093542;28;20731;-72
2021/03/01 05:51:58;;;;;;;43.80;21.65;;;;;;;3.43;53.26;96174.34;5093690;28;20187;-67
2021/03/01 05:54:29;;;;;;;43.58;21.33;;;;;;;3.35;53.39;96174.41;5093734;28;20191;-69
2021/03/01 05:56:57;;;;;;;47.25;22.85;;;;;;;3.34;53.53;96150.28;5093033;28;20203;-69
2021/03/01 05:59:24;;;;;;;48.95;23.42;;;;;;;3.68;53.17;96173.03;5093458;28;20207;-69
2021/03/01 06:01:51;;;;;;;54.78;23.17;;;;;;;3.88;52.65;96179.25;5093642;28;20244;-68
2021/03/01 06:04:18;;;;;;;55.17;24.17;;;;;;;4.06;52.60;96174.47;5093236;28;20235;-67
2021/03/01 06:06:44;;;;;;;44.20;22.35;;;;;;;4.10;52.21;96157.56;5093383;28;20564;-70
2021/03/01 06:09:11;;;;;;;45.75;22.77;;;;;;;3.83;52.85;96158.28;5093300;28;20684;-71
2021/03/01 06:11:37;;;;;;;37.70;19.40;;;;;;;3.80;52.13;96166.41;5092977;28;20202;-70
2021/03/01 06:14:05;;;;;;;38.25;18.38;;;;;;;3.81;52.51;96148.06;5093785;28;20222;-69
2021/03/01 06:16:32;;;;;;;23.05;13.93;;;;;;;4.22;51.48;96147.47;5093161;28;20199;-70
2021/03/01 06:18:59;;;;;;;21.20;13.35;;;;;;;4.30;51.09;96137.78;5093235;28;20240;-70
2021/03/01 06:21:26;;;;;;;18.55;12.63;;;;;;;4.37;50.93;96143.84;5093260;28;20223;-71
2021/03/01 06:23:54;;;;;;;20.77;13.75;;;;;;;4.52;50.15;96149.75;5091353;28;20227;-71
2021/03/01 06:26:33;;;;;;;24.08;13.73;;;;;;;4.55;51.09;96136.41;5089678;28;20575;-70
2021/03/01 06:29:03;;;;;;;23.65;13.57;;;;;;;4.42;50.43;96131.09;5090099;28;20230;-68
2021/03/01 06:31:43;;;;;;;20.85;13.23;;;;;;;4.44;50.30;96123.94;5090430;28;20171;-69
2021/03/01 06:34:29;;;;;;;23.52;13.32;;;;;;;4.36;50.55;96121.47;5090585;28;20273;-69
2021/03/01 06:37:10;;;;;;;22.30;14.35;;;;;;;4.51;50.35;96124.78;5090789;28;20206;-70
2021/03/01 06:39:39;;;;;;;21.05;13.35;;;;;;;4.68;50.28;96126.13;5089838;28;20210;-68
2021/03/01 06:45:05;;;;;;;20.90;13.35;;;;;;;5.14;49.65;96132.44;5091180;28;20190;-69
2021/03/01 06:47:55;;;;;;;22.20;13.80;;;;;;;5.34;49.29;96126.50;5078587;28;20281;-70
2021/03/01 06:50:31;;;;;;;21.05;13.73;;;;;;;5.02;48.82;96102.75;5091243;28;20219;-70
2021/03/01 06:53:16;;;;;;;20.02;13.07;;;;;;;5.05;49.12;96123.16;5092365;28;21126;-70
2021/03/01 06:56:16;;;;;;;20.77;13.73;;;;;;;5.08;49.00;96140.97;5091858;28;20302;-70
2021/03/01 06:58:46;;;;;;;22.65;13.95;;;;;;;4.78;49.35;96131.78;5086193;28;20207;-67
2021/03/01 07:01:16;;;;;;;25.00;13.30;;;;;;;5.21;49.25;96144.63;5093311;28;20269;-69
2021/03/01 07:03:45;;;;;;;24.50;14.80;;;;;;;5.38;49.81;96140.75;5092171;28;20279;-70
2021/03/01 07:06:11;;;;;;;27.02;14.55;;;;;;;5.26;49.12;96139.66;5091296;28;20227;-69
2021/03/01 07:08:49;;;;;;;25.33;14.38;;;;;;;5.45;49.06;96141.56;5091910;28;20240;-69
2021/03/01 07:11:24;;;;;;;24.65;14.63;;;;;;;5.38;49.69;96151.13;5091713;28;20617;-69
2021/03/01 07:14:05;;;;;;;25.45;13.73;;;;;;;5.39;48.68;96160.53;5100994;28;20549;-69
2021/03/01 07:16:47;;;;;;;22.42;13.90;;;;;;;5.51;48.91;96161.59;5110745;28;20267;-69
2021/03/01 07:19:21;;;;;;;25.63;14.27;;;;;;;5.35;48.82;96154.09;5111958;28;20552;-70
2021/03/01 07:21:55;;;;;;;23.83;13.32;;;;;;;5.44;48.74;96163.38;5112158;28;20202;-69
2021/03/01 07:24:23;;;;;;;20.77;13.05;;;;;;;5.16;49.17;96166.78;5111529;28;20179;-70
2021/03/01 07:26:56;;;;;;;20.52;14.35;;;;;;;5.12;49.88;96175.97;5112072;28;20198;-71
2021/03/01 07:29:24;;;;;;;23.92;12.73;;;;;;;5.11;49.83;96174.34;5111781;28;20210;-69
2021/03/01 07:32:00;;;;;;;27.02;14.65;;;;;;;5.10;50.43;96177.97;5112108;28;20197;-69
2021/03/01 07:34:28;;;;;;;24.73;15.48;;;;;;;5.40;49.93;96177.75;5111716;28;20270;-70
2021/03/01 07:36:56;;;;;;;20.20;14.55;;;;;;;5.44;49.61;96173.75;5112345;28;20194;-69
2021/03/01 07:39:23;;;;;;;28.10;15.27;;;;;;;5.51;49.87;96172.00;5111015;28;20193;-69
2021/03/01 07:41:51;;;;;;;23.73;14.57;;;;;;;5.47;49.80;96181.16;5111826;28;20187;-70
2021/03/01 07:44:28;;;;;;;24.23;15.48;;;;;;;5.44;49.78;96176.38;5111392;28;20232;-71
2021/03/01 07:46:56;;;;;;;23.52;14.05;;;;;;;5.24;50.13;96185.84;5112219;28;20571;-68
2021/03/01 07:49:52;;;;;;;24.35;14.60;;;;;;;5.62;49.74;96169.63;5110904;28;20214;-69
2021/03/01 07:52:18;;;;;;;24.48;14.85;;;;;;;5.92;49.71;96162.38;5102302;28;20214;-69
2021/03/01 07:55:03;;;;;;;20.17;11.25;;;;;;;5.60;49.35;96163.81;5111242;28;20194;-69
2021/03/01 07:57:31;;;;;;;23.55;14.38;;;;;;;5.87;49.57;96142.19;5111471;28;20191;-69
2021/03/01 08:00:01;;;;;;;22.10;14.10;;;;;;;5.78;50.07;96160.72;5111219;28;20195;-69
2021/03/01 08:02:34;;;;;;;21.55;14.30;;;;;;;6.11;48.79;96161.66;5111502;28;20624;-69
2021/03/01 08:05:31;;;;;;;19.65;14.75;;;;;;;6.30;48.64;96160.88;5111140;28;20246;-68
2021/03/01 08:07:59;;;;;;;21.42;14.25;;;;;;;6.12;48.63;96147.63;5111433;28;20664;-69
2021/03/01 08:10:28;;;;;;;22.50;14.80;;;;;;;5.83;48.97;96159.16;5111155;28;20221;-70
2021/03/01 08:12:56;;;;;;;20.92;14.55;;;;;;;6.22;48.86;96160.25;5111108;27;20269;-70
2021/03/01 08:15:27;;;;;;;25.40;14.13;;;;;;;6.49;47.89;96162.72;5110613;28;20198;-70
2021/03/01 08:17:55;;;;;;;22.17;14.02;;;;;;;6.53;47.24;96163.91;5111296;28;20269;-69
2021/03/01 08:20:30;;;;;;;30.30;13.45;;;;;;;6.17;47.63;96157.47;5110918;28;20199;-68
2021/03/01 08:23:06;;;;;;;23.52;13.70;;;;;;;6.43;47.58;96158.28;5110893;28;20239;-69
2021/03/01 08:25:58;;;;;;;22.98;13.82;;;;;;;6.93;46.34;96144.66;5110790;28;20197;-69
2021/03/01 08:28:24;;;;;;;21.65;14.82;;;;;;;7.46;46.07;96152.41;5111048;28;20213;-69
2021/03/01 08:31:17;;;;;;;21.08;14.15;;;;;;;7.49;44.97;96144.97;5118261;28;20194;-69
2021/03/01 08:33:45;;;;;;;21.30;13.43;;;;;;;7.67;44.02;96139.06;5110737;28;20209;-69
2021/03/01 08:36:25;;;;;;;18.27;13.63;;;;;;;7.40;44.81;96148.00;5110355;28;20198;-70
2021/03/01 08:38:54;;;;;;;22.42;13.55;;;;;;;7.45;44.71;96140.34;5110620;27;20969;-69
2021/03/01 08:41:30;;;;;;;19.70;11.30;;;;;;;7.27;44.71;96141.00;5110663;28;20194;-71
2021/03/01 08:43:59;;;;;;;22.88;14.05;;;;;;;7.80;44.50;96133.81;5110676;28;20209;-69
2021/03/01 08:46:25;;;;;;;23.55;11.60;;;;;;;7.31;43.25;96133.56;5110252;28;20266;-69
2021/03/01 08:48:54;;;;;;;17.80;11.43;;;;;;;7.41;42.72;96139.19;5110579;28;20206;-72
2021/03/01 08:51:21;;;;;;;18.30;13.07;;;;;;;7.77;42.75;96144.66;5110026;28;20194;-70
2021/03/01 08:53:51;;;;;;;18.20;11.52;;;;;;;7.75;42.89;96141.47;5110524;28;20438;-70
2021/03/01 08:56:25;;;;;;;16.57;11.17;;;;;;;7.92;42.41;96135.53;5110479;27;20198;-70
2021/03/01 08:58:52;;;;;;;21.50;11.77;;;;;;;7.49;43.36;96131.13;5111219;28;20447;-74
2021/03/01 09:01:18;;;;;;;20.10;12.63;;;;;;;7.63;42.88;96132.66;5109972;28;20996;-70
2021/03/01 09:03:47;;;;;;;18.90;11.43;;;;;;;8.40;41.37;96125.47;5110184;28;20433;-72
2021/03/01 09:06:16;;;;;;;18.67;12.37;;;;;;;8.43;41.57;96130.25;5110149;28;20555;-73
2021/03/01 09:08:45;;;;;;;16.90;10.90;;;;;;;8.71;42.24;96120.19;5110464;28;20991;-73
2021/03/01 09:11:15;;;;;;;19.67;11.63;;;;;;;9.14;41.51;96118.38;5110043;28;20441;-70
2021/03/01 09:13:42;;;;;;;25.00;11.37;;;;;;;9.63;41.08;96133.16;5109448;28;20523;-70
2021/03/01 09:16:16;;;;;;;16.13;11.00;;;;;;;9.47;39.07;96122.50;5109941;28;20482;-70
2021/03/01 09:18:46;;;;;;;15.13;10.20;;;;;;;9.04;38.84;96127.75;5110252;28;20470;-71
2021/03/01 09:21:16;;;;;;;14.57;9.57;;;;;;;8.54;38.71;96126.94;5109857;28;20464;-72
2021/03/01 09:23:50;;;;;;;13.93;9.63;;;;;;;8.61;39.73;96117.25;5110514;28;20871;-71
2021/03/01 09:26:21;;;;;;;18.67;10.13;;;;;;;8.85;39.91;96134.75;5110015;28;20523;-73
2021/03/01 09:28:49;;;;;;;19.83;10.63;;;;;;;8.82;38.56;96135.19;5110405;28;20582;-71
2021/03/01 09:31:27;;;;;;;18.03;12.50;;;;;;;8.98;40.55;96131.22;5110197;28;20818;-71
2021/03/01 09:33:55;;;;;;;17.27;11.17;;;;;;;8.66;39.82;96130.50;5110516;28;20818;-69
2021/03/01 09:36:27;;;;;;;18.93;10.53;;;;;;;8.66;40.09;96134.91;5109591;28;20448;-72
2021/03/01 09:38:53;;;;;;;18.83;10.87;;;;;;;8.73;39.28;96140.88;5111100;28;20952;-72
2021/03/01 09:41:20;;;;;;;14.20;10.60;;;;;;;8.31;40.08;96121.50;5110056;28;20448;-72
2021/03/01 09:43:50;;;;;;;16.77;10.33;;;;;;;8.12;39.95;96127.59;5110379;28;20464;-70
2021/03/01 09:46:19;;;;;;;18.67;11.00;;;;;;;8.45;39.68;96133.44;5110067;28;20454;-71
2021/03/01 09:48:45;;;;;;;15.33;10.00;;;;;;;8.85;40.00;96124.28;5109942;28;20472;-71
2021/03/01 09:51:13;;;;;;;16.30;9.77;;;;;;;9.13;38.31;96124.63;5109588;28;20437;-75
2021/03/01 09:53:40;;;;;;;16.30;10.40;;;;;;;8.91;38.54;96101.72;5110430;28;20443;-73
2021/03/01 09:56:06;;;;;;;17.63;10.07;;;;;;;9.41;37.50;96131.19;5109348;28;20444;-73
2021/03/01 09:58:43;;;;;;;15.13;10.83;;;;;;;9.89;36.81;96132.84;5109938;28;20435;-73
2021/03/01 10:01:10;;;;;;;17.40;10.47;;;;;;;9.42;37.12;96133.59;5115095;28;20431;-72
2021/03/01 10:03:39;;;;;;;26.07;10.90;;;;;;;9.27;38.75;96137.59;5110584;28;20518;-71
2021/03/01 10:06:06;;;;;;;15.17;9.53;;;;;;;9.13;39.11;96123.84;5109281;28;20494;-71
2021/03/01 10:08:33;;;;;;;15.73;9.97;;;;;;;9.52;39.09;96120.00;5109662;28;20775;-71
2021/03/01 10:11:00;;;;;;;18.67;10.53;;;;;;;9.96;36.76;96119.69;5109510;28;20818;-71
2021/03/01 10:13:32;;;;;;;12.77;9.40;;;;;;;10.05;35.80;96120.97;5110054;28;20432;-70
2021/03/01 10:16:01;;;;;;;15.10;9.80;;;;;;;9.61;36.30;96103.00;5109532;28;20531;-71
2021/03/01 10:18:30;;;;;;;13.10;9.40;;;;;;;10.05;36.21;96123.59;5109996;28;20523;-72
2021/03/01 10:21:06;;;;;;;14.53;9.60;;;;;;;9.61;37.08;96124.75;5109611;28;20463;-72
2021/03/01 10:23:40;;;;;;;13.03;9.00;;;;;;;9.17;36.33;96123.19;5109953;28;20505;-71
2021/03/01 10:26:21;;;;;;;16.80;9.50;;;;;;;9.63;36.67;96112.25;5111587;28;20502;-71
2021/03/01 10:28:58;;;;;;;14.87;9.47;;;;;;;9.72;36.79;96104.88;5113887;28;20464;-71
2021/03/01 10:31:33;;;;;;;13.30;9.27;;;;;;;10.01;36.02;96096.22;5112882;28;20439;-72
2021/03/01 10:34:05;;;;;;;16.60;9.90;;;;;;;10.09;35.56;96075.00;5113282;28;20969;-71
2021/03/01 10:36:34;;;;;;;14.60;8.83;;;;;;;10.71;35.58;96078.88;5112997;28;20487;-71
2021/03/01 10:39:06;;;;;;;12.00;8.73;;;;;;;10.39;34.93;96081.00;5113143;28;21097;-71
2021/03/01 10:41:40;;;;;;;17.87;10.27;;;;;;;10.61;35.25;96066.34;5112656;28;20505;-71
2021/03/01 10:44:09;;;;;;;16.00;9.77;;;;;;;10.56;34.94;96076.72;5113211;28;20828;-69
2021/03/01 10:46:47;;;;;;;15.53;9.50;;;;;;;10.71;34.65;96074.41;5113168;28;20527;-72
2021/03/01 10:49:28;;;;;;;16.07;9.70;;;;;;;10.54;34.84;96070.91;5112741;28;20467;-71
2021/03/01 10:51:58;;;;;;;14.23;8.83;;;;;;;10.10;35.38;96068.75;5113164;28;20428;-70
2021/03/01 10:54:27;;;;;;;13.03;9.40;;;;;;;9.95;35.96;96076.97;5113163;28;20435;-70
2021/03/01 10:56:54;;;;;;;15.67;9.43;;;;;;;9.87;35.78;96076.50;5113557;28;20440;-70
2021/03/01 10:59:21;;;;;;;15.07;9.53;;;;;;;10.02;35.81;96066.41;5112177;28;20563;-70
2021/03/01 11:01:47;;;;;;;12.77;10.00;;;;;;;9.75;35.84;96065.97;5113249;27;20508;-72
2021/03/01 11:04:16;;;;;;;13.83;9.30;;;;;;;9.78;37.21;96065.50;5112042;28;20487;-70
2021/03/01 11:06:48;;;;;;;14.03;9.80;;;;;;;9.99;36.24;96059.81;5112481;28;20421;-70
2021/03/01 11:09:14;;;;;;;13.43;9.43;;;;;;;9.42;35.93;96046.44;5111815;28;20562;-70
2021/03/01 11:11:41;;;;;;;18.33;9.57;;;;;;;9.51;36.57;96060.84;5112344;28;20755;-71
2021/03/01 11:14:10;;;;;;;13.87;8.63;;;;;;;9.37;36.26;96057.59;5112406;28;20807;-72
2021/03/01 11:16:37;;;;;;;12.03;8.53;;;;;;;9.59;36.20;96063.16;5112567;28;20436;-70
2021/03/01 11:19:05;;;;;;;16.03;8.97;;;;;;;9.39;36.39;96052.94;5112812;28;20448;-70
2021/03/01 11:21:32;;;;;;;12.97;9.27;;;;;;;9.44;36.89;96049.66;5112290;28;20440;-71
2021/03/01 11:23:59;;;;;;;14.23;9.03;;;;;;;9.54;36.42;96052.56;5112359;28;20440;-71
2021/03/01 11:26:26;;;;;;;18.90;9.37;;;;;;;9.65;37.83;96043.97;5112141;28;20441;-69
2021/03/01 11:28:54;;;;;;;12.43;9.57;;;;;;;9.32;37.23;96041.75;5112441;28;20436;-73
2021/03/01 11:31:21;;;;;;;24.50;9.20;;;;;;;9.48;37.63;96042.97;5116182;28;20765;-70
2021/03/01 11:33:47;;;;;;;10.70;8.23;;;;;;;9.24;38.03;96055.13;5120281;28;20493;-70
2021/03/01 11:36:14;;;;;;;12.13;9.00;;;;;;;9.28;37.75;96050.25;5110975;28;20440;-71
2021/03/01 11:38:44;;;;;;;15.23;8.80;;;;;;;9.36;36.69;96048.13;5111953;28;20440;-71
2021/03/01 11:41:16;;;;;;;15.53;6.90;;;;;;;9.29;35.33;96052.66;5111710;28;20462;-69
2021/03/01 11:43:50;;;;;;;18.57;7.30;;;;;;;9.11;36.14;96048.22;5111873;28;20451;-71
2021/03/01 11:46:17;;;;;;;10.13;6.90;;;;;;;8.67;37.01;96042.44;5110922;28;20447;-70